sensor_id;sensor_type;location;lat;lon;timestamp;P1;durP1;ratioP1;P2;durP2;ratioP2
25437;SDS011;13364;49.084;9.978;2024-01-25T05:01:20;8.20;;;1.98;;
25437;SDS011;13364;49.084;9.978;2024-01-25T05:03:47;17.77;;;3.35;;
25437;SDS011;13364;49.084;9.978;2024-01-25T05:06:14;14.32;;;3.60;;
25437;SDS011;13364;49.084;9.978;2024-01-25T05:08:42;17.15;;;3.17;;
25437;SDS011;13364;49.084;9.978;2024-01-25T05:11:10;8.60;;;2.80;;
25437;SDS011;13364;49.084;9.978;2024-01-25T05:13:36;12.63;;;2.97;;
25437;SDS011;13364;49.084;9.978;2024-01-25T05:16:03;11.23;;;1.92;;
25437;SDS011;13364;49.084;9.978;2024-01-25T05:18:30;16.15;;;2.60;;
25437;SDS011;13364;49.084;9.978;2024-01-25T05:20:57;10.23;;;2.85;;
25437;SDS011;13364;49.084;9.978;2024-01-25T05:23:24;16.17;;;2.78;;
25437;SDS011;13364;49.084;9.978;2024-01-25T05:25:51;17.60;;;2.40;;
25437;SDS011;13364;49.084;9.978;2024-01-25T05:28:18;11.15;;;2.67;;
25437;SDS011;13364;49.084;9.978;2024-01-25T05:30:45;10.07;;;2.40;;
25437;SDS011;13364;49.084;9.978;2024-01-25T05:33:12;14.32;;;3.42;;
25437;SDS011;13364;49.084;9.978;2024-01-25T05:35:39;8.43;;;2.70;;
25437;SDS011;13364;49.084;9.978;2024-01-25T05:38:06;10.38;;;2.03;;
25437;SDS011;13364;49.084;9.978;2024-01-25T05:40:35;17.95;;;2.72;;
25437;SDS011;13364;49.084;9.978;2024-01-25T05:43:02;12.15;;;3.15;;
25437;SDS011;13364;49.084;9.978;2024-01-25T05:45:29;10.45;;;2.53;;
25437;SDS011;13364;49.084;9.978;2024-01-25T05:47:56;17.42;;;2.83;;
25437;SDS011;13364;49.084;9.978;2024-01-25T05:50:23;7.70;;;3.42;;
25437;SDS011;13364;49.084;9.978;2024-01-25T05:52:50;10.00;;;2.70;;
25437;SDS011;13364;49.084;9.978;2024-01-25T05:55:17;9.43;;;2.35;;
25437;SDS011;13364;49.084;9.978;2024-01-25T05:57:43;14.40;;;3.38;;
25437;SDS011;13364;49.084;9.978;2024-01-25T06:00:11;15.25;;;3.55;;
25437;SDS011;13364;49.084;9.978;2024-01-25T06:02:39;15.18;;;3.08;;
25437;SDS011;13364;49.084;9.978;2024-01-25T06:05:06;11.60;;;2.47;;
25437;SDS011;13364;49.084;9.978;2024-01-25T06:07:34;12.02;;;2.60;;
25437;SDS011;13364;49.084;9.978;2024-01-25T06:10:01;12.80;;;3.00;;
25437;SDS011;13364;49.084;9.978;2024-01-25T06:12:28;11.90;;;2.72;;
25437;SDS011;13364;49.084;9.978;2024-01-25T06:14:56;11.25;;;2.55;;
25437;SDS011;13364;49.084;9.978;2024-01-25T06:17:22;13.45;;;3.05;;
25437;SDS011;13364;49.084;9.978;2024-01-25T06:19:49;10.85;;;2.78;;
25437;SDS011;13364;49.084;9.978;2024-01-25T06:22:16;13.20;;;2.55;;
25437;SDS011;13364;49.084;9.978;2024-01-25T06:24:43;15.75;;;2.40;;
25437;SDS011;13364;49.084;9.978;2024-01-25T06:27:10;11.68;;;2.28;;
25437;SDS011;13364;49.084;9.978;2024-01-25T06:29:37;21.02;;;3.90;;
25437;SDS011;13364;49.084;9.978;2024-01-25T06:32:04;11.07;;;2.45;;
25437;SDS011;13364;49.084;9.978;2024-01-25T06:34:38;11.93;;;3.10;;
25437;SDS011;13364;49.084;9.978;2024-01-25T06:37:05;10.32;;;2.92;;
25437;SDS011;13364;49.084;9.978;2024-01-25T06:39:32;8.35;;;2.70;;
25437;SDS011;13364;49.084;9.978;2024-01-25T06:42:00;17.63;;;2.40;;
25437;SDS011;13364;49.084;9.978;2024-01-25T06:44:27;14.95;;;3.05;;
25437;SDS011;13364;49.084;9.978;2024-01-25T06:46:54;11.82;;;3.05;;
25437;SDS011;13364;49.084;9.978;2024-01-25T06:49:21;7.53;;;2.28;;
25437;SDS011;13364;49.084;9.978;2024-01-25T06:51:48;11.65;;;3.55;;
25437;SDS011;13364;49.084;9.978;2024-01-25T06:54:15;8.48;;;3.25;;
25437;SDS011;13364;49.084;9.978;2024-01-25T06:56:41;15.25;;;3.22;;
25437;SDS011;13364;49.084;9.978;2024-01-25T06:59:08;12.85;;;3.70;;
25437;SDS011;13364;49.084;9.978;2024-01-25T07:01:35;17.80;;;3.10;;
25437;SDS011;13364;49.084;9.978;2024-01-25T07:04:03;15.10;;;3.65;;
25437;SDS011;13364;49.084;9.978;2024-01-25T07:06:30;17.70;;;2.72;;
25437;SDS011;13364;49.084;9.978;2024-01-25T07:08:57;9.80;;;2.45;;
25437;SDS011;13364;49.084;9.978;2024-01-25T07:11:24;7.00;;;2.53;;
25437;SDS011;13364;49.084;9.978;2024-01-25T07:13:51;10.10;;;2.80;;
25437;SDS011;13364;49.084;9.978;2024-01-25T07:16:18;11.35;;;3.28;;
25437;SDS011;13364;49.084;9.978;2024-01-25T07:18:46;13.15;;;3.10;;
25437;SDS011;13364;49.084;9.978;2024-01-25T07:21:13;9.38;;;2.85;;
25437;SDS011;13364;49.084;9.978;2024-01-25T07:23:39;10.88;;;2.70;;
25437;SDS011;13364;49.084;9.978;2024-01-25T07:26:06;9.90;;;2.90;;
25437;SDS011;13364;49.084;9.978;2024-01-25T07:28:33;13.35;;;2.90;;
25437;SDS011;13364;49.084;9.978;2024-01-25T07:31:00;9.10;;;2.53;;
25437;SDS011;13364;49.084;9.978;2024-01-25T07:33:27;14.20;;;3.05;;
25437;SDS011;13364;49.084;9.978;2024-01-25T07:35:54;16.48;;;3.53;;
25437;SDS011;13364;49.084;9.978;2024-01-25T07:38:21;9.95;;;2.65;;
25437;SDS011;13364;49.084;9.978;2024-01-25T07:40:48;9.70;;;2.63;;
25437;SDS011;13364;49.084;9.978;2024-01-25T07:43:15;14.52;;;3.30;;
25437;SDS011;13364;49.084;9.978;2024-01-25T07:45:42;15.20;;;2.83;;
25437;SDS011;13364;49.084;9.978;2024-01-25T07:48:09;14.38;;;3.03;;
25437;SDS011;13364;49.084;9.978;2024-01-25T07:50:41;13.88;;;2.53;;
25437;SDS011;13364;49.084;9.978;2024-01-25T07:53:08;15.38;;;3.55;;
25437;SDS011;13364;49.084;9.978;2024-01-25T07:55:35;11.40;;;2.58;;
25437;SDS011;13364;49.084;9.978;2024-01-25T07:58:02;13.32;;;2.78;;
25437;SDS011;13364;49.084;9.978;2024-01-25T08:00:29;15.77;;;2.75;;
25437;SDS011;13364;49.084;9.978;2024-01-25T08:02:55;12.88;;;3.17;;
25437;SDS011;13364;49.084;9.978;2024-01-25T08:05:22;13.38;;;2.70;;
25437;SDS011;13364;49.084;9.978;2024-01-25T08:08:02;16.80;;;3.58;;
25437;SDS011;13364;49.084;9.978;2024-01-25T08:10:29;14.23;;;2.38;;
25437;SDS011;13364;49.084;9.978;2024-01-25T08:12:56;14.60;;;3.35;;
25437;SDS011;13364;49.084;9.978;2024-01-25T08:15:33;12.43;;;2.83;;
25437;SDS011;13364;49.084;9.978;2024-01-25T08:18:00;15.07;;;3.25;;
25437;SDS011;13364;49.084;9.978;2024-01-25T08:20:27;13.70;;;2.90;;
25437;SDS011;13364;49.084;9.978;2024-01-25T08:22:55;14.70;;;3.38;;
25437;SDS011;13364;49.084;9.978;2024-01-25T08:25:21;18.50;;;2.55;;
25437;SDS011;13364;49.084;9.978;2024-01-25T08:27:48;14.90;;;3.28;;
25437;SDS011;13364;49.084;9.978;2024-01-25T08:30:16;21.02;;;4.20;;
25437;SDS011;13364;49.084;9.978;2024-01-25T08:32:42;16.65;;;2.80;;
25437;SDS011;13364;49.084;9.978;2024-01-25T08:35:09;14.85;;;3.50;;
25437;SDS011;13364;49.084;9.978;2024-01-25T08:37:37;13.15;;;2.95;;
25437;SDS011;13364;49.084;9.978;2024-01-25T08:40:04;11.32;;;3.35;;
25437;SDS011;13364;49.084;9.978;2024-01-25T08:42:36;13.68;;;3.05;;
25437;SDS011;13364;49.084;9.978;2024-01-25T08:45:03;14.57;;;3.40;;
25437;SDS011;13364;49.084;9.978;2024-01-25T08:47:31;10.13;;;2.92;;
25437;SDS011;13364;49.084;9.978;2024-01-25T08:49:58;9.73;;;2.60;;
25437;SDS011;13364;49.084;9.978;2024-01-25T08:52:25;22.75;;;4.20;;
25437;SDS011;13364;49.084;9.978;2024-01-25T08:54:52;16.38;;;2.75;;
25437;SDS011;13364;49.084;9.978;2024-01-25T08:57:19;17.92;;;3.33;;
25437;SDS011;13364;49.084;9.978;2024-01-25T08:59:45;14.15;;;2.47;;
25437;SDS011;13364;49.084;9.978;2024-01-25T09:02:12;13.57;;;2.33;;
25437;SDS011;13364;49.084;9.978;2024-01-25T09:04:40;14.20;;;2.90;;
25437;SDS011;13364;49.084;9.978;2024-01-25T09:07:09;8.52;;;2.78;;
25437;SDS011;13364;49.084;9.978;2024-01-25T09:09:36;11.55;;;2.85;;
25437;SDS011;13364;49.084;9.978;2024-01-25T09:12:05;9.50;;;2.72;;
25437;SDS011;13364;49.084;9.978;2024-01-25T09:14:34;11.23;;;3.35;;
25437;SDS011;13364;49.084;9.978;2024-01-25T09:17:02;15.85;;;3.35;;
25437;SDS011;13364;49.084;9.978;2024-01-25T09:19:29;11.75;;;2.80;;
25437;SDS011;13364;49.084;9.978;2024-01-25T09:21:56;11.77;;;3.22;;
25437;SDS011;13364;49.084;9.978;2024-01-25T09:24:26;10.38;;;3.03;;
25437;SDS011;13364;49.084;9.978;2024-01-25T09:26:53;17.08;;;2.88;;
25437;SDS011;13364;49.084;9.978;2024-01-25T09:29:20;15.65;;;3.53;;
25437;SDS011;13364;49.084;9.978;2024-01-25T09:31:46;14.50;;;3.17;;
25437;SDS011;13364;49.084;9.978;2024-01-25T09:34:13;17.95;;;3.08;;
25437;SDS011;13364;49.084;9.978;2024-01-25T09:36:40;16.83;;;3.55;;
25437;SDS011;13364;49.084;9.978;2024-01-25T09:39:07;16.67;;;3.15;;
25437;SDS011;13364;49.084;9.978;2024-01-25T09:41:34;17.65;;;3.33;;
25437;SDS011;13364;49.084;9.978;2024-01-25T09:44:01;15.07;;;3.05;;
25437;SDS011;13364;49.084;9.978;2024-01-25T09:46:30;15.98;;;3.17;;
25437;SDS011;13364;49.084;9.978;2024-01-25T09:48:58;18.75;;;4.05;;
25437;SDS011;13364;49.084;9.978;2024-01-25T09:51:25;16.45;;;3.08;;
25437;SDS011;13364;49.084;9.978;2024-01-25T09:53:53;10.20;;;2.70;;
25437;SDS011;13364;49.084;9.978;2024-01-25T09:56:21;17.48;;;3.45;;
25437;SDS011;13364;49.084;9.978;2024-01-25T09:58:51;12.85;;;2.75;;
25437;SDS011;13364;49.084;9.978;2024-01-25T10:01:19;14.27;;;2.65;;
25437;SDS011;13364;49.084;9.978;2024-01-25T10:03:46;10.98;;;2.92;;
25437;SDS011;13364;49.084;9.978;2024-01-25T10:06:14;12.68;;;2.22;;
25437;SDS011;13364;49.084;9.978;2024-01-25T10:08:41;11.57;;;2.70;;
25437;SDS011;13364;49.084;9.978;2024-01-25T10:11:09;14.18;;;2.53;;
25437;SDS011;13364;49.084;9.978;2024-01-25T10:13:41;12.23;;;3.33;;
25437;SDS011;13364;49.084;9.978;2024-01-25T10:16:14;13.52;;;3.03;;
25437;SDS011;13364;49.084;9.978;2024-01-25T10:18:43;15.07;;;3.22;;
25437;SDS011;13364;49.084;9.978;2024-01-25T10:23:41;14.07;;;3.03;;
25437;SDS011;13364;49.084;9.978;2024-01-25T10:26:11;11.75;;;3.08;;
25437;SDS011;13364;49.084;9.978;2024-01-25T10:28:38;13.30;;;2.92;;
25437;SDS011;13364;49.084;9.978;2024-01-25T10:31:05;18.50;;;3.22;;
25437;SDS011;13364;49.084;9.978;2024-01-25T10:33:33;18.30;;;3.38;;
25437;SDS011;13364;49.084;9.978;2024-01-25T10:36:02;11.93;;;3.07;;
25437;SDS011;13364;49.084;9.978;2024-01-25T10:38:30;17.98;;;3.03;;
25437;SDS011;13364;49.084;9.978;2024-01-25T10:40:59;13.60;;;3.53;;
25437;SDS011;13364;49.084;9.978;2024-01-25T10:43:31;8.10;;;3.30;;
25437;SDS011;13364;49.084;9.978;2024-01-25T10:45:59;16.10;;;3.00;;
25437;SDS011;13364;49.084;9.978;2024-01-25T10:48:30;17.85;;;3.70;;
25437;SDS011;13364;49.084;9.978;2024-01-25T10:50:57;16.45;;;3.20;;
25437;SDS011;13364;49.084;9.978;2024-01-25T10:53:26;17.50;;;2.92;;
25437;SDS011;13364;49.084;9.978;2024-01-25T10:55:54;15.53;;;3.53;;
25437;SDS011;13364;49.084;9.978;2024-01-25T10:58:21;13.77;;;3.53;;
25437;SDS011;13364;49.084;9.978;2024-01-25T11:00:52;15.77;;;2.83;;
25437;SDS011;13364;49.084;9.978;2024-01-25T11:03:28;19.38;;;3.58;;
25437;SDS011;13364;49.084;9.978;2024-01-25T11:06:07;10.68;;;3.20;;
25437;SDS011;13364;49.084;9.978;2024-01-25T11:08:39;13.52;;;3.15;;
25437;SDS011;13364;49.084;9.978;2024-01-25T11:11:06;14.13;;;3.60;;
25437;SDS011;13364;49.084;9.978;2024-01-25T11:13:35;13.07;;;3.10;;
25437;SDS011;13364;49.084;9.978;2024-01-25T11:18:57;19.08;;;2.63;;
25437;SDS011;13364;49.084;9.978;2024-01-25T11:24:20;18.52;;;3.22;;
25437;SDS011;13364;49.084;9.978;2024-01-25T11:26:49;13.50;;;2.80;;
25437;SDS011;13364;49.084;9.978;2024-01-25T11:29:17;10.80;;;2.80;;
25437;SDS011;13364;49.084;9.978;2024-01-25T11:31:45;19.67;;;2.97;;
25437;SDS011;13364;49.084;9.978;2024-01-25T11:34:13;12.13;;;2.90;;
25437;SDS011;13364;49.084;9.978;2024-01-25T11:36:42;9.60;;;2.83;;
25437;SDS011;13364;49.084;9.978;2024-01-25T11:39:09;12.60;;;2.65;;
25437;SDS011;13364;49.084;9.978;2024-01-25T11:41:37;18.05;;;3.35;;
25437;SDS011;13364;49.084;9.978;2024-01-25T11:44:05;18.08;;;3.67;;
25437;SDS011;13364;49.084;9.978;2024-01-25T11:46:32;12.30;;;3.00;;
25437;SDS011;13364;49.084;9.978;2024-01-25T11:49:03;9.52;;;2.85;;
25437;SDS011;13364;49.084;9.978;2024-01-25T11:51:31;12.50;;;3.47;;
25437;SDS011;13364;49.084;9.978;2024-01-25T11:53:58;14.38;;;2.85;;
25437;SDS011;13364;49.084;9.978;2024-01-25T11:56:31;13.15;;;3.20;;
25437;SDS011;13364;49.084;9.978;2024-01-25T11:58:59;9.48;;;2.95;;
25437;SDS011;13364;49.084;9.978;2024-01-25T12:01:27;14.10;;;2.80;;
25437;SDS011;13364;49.084;9.978;2024-01-25T12:03:54;12.20;;;3.00;;
25437;SDS011;13364;49.084;9.978;2024-01-25T12:06:23;13.98;;;3.08;;
25437;SDS011;13364;49.084;9.978;2024-01-25T12:08:50;15.55;;;3.08;;
25437;SDS011;13364;49.084;9.978;2024-01-25T12:11:18;10.68;;;2.70;;
25437;SDS011;13364;49.084;9.978;2024-01-25T12:13:46;12.40;;;2.63;;
25437;SDS011;13364;49.084;9.978;2024-01-25T12:16:13;9.80;;;2.30;;
25437;SDS011;13364;49.084;9.978;2024-01-25T12:18:40;11.98;;;2.80;;
25437;SDS011;13364;49.084;9.978;2024-01-25T12:21:09;7.32;;;2.08;;
25437;SDS011;13364;49.084;9.978;2024-01-25T12:23:37;12.55;;;3.28;;
25437;SDS011;13364;49.084;9.978;2024-01-25T12:26:05;10.30;;;2.25;;
25437;SDS011;13364;49.084;9.978;2024-01-25T12:28:34;12.68;;;3.10;;
25437;SDS011;13364;49.084;9.978;2024-01-25T12:31:02;8.38;;;2.60;;
25437;SDS011;13364;49.084;9.978;2024-01-25T12:33:30;16.60;;;3.03;;
25437;SDS011;13364;49.084;9.978;2024-01-25T12:35:58;13.25;;;3.58;;
25437;SDS011;13364;49.084;9.978;2024-01-25T12:38:25;14.63;;;2.63;;
25437;SDS011;13364;49.084;9.978;2024-01-25T12:40:52;10.27;;;2.78;;
25437;SDS011;13364;49.084;9.978;2024-01-25T12:43:19;15.98;;;3.75;;
25437;SDS011;13364;49.084;9.978;2024-01-25T12:45:49;11.05;;;2.65;;
25437;SDS011;13364;49.084;9.978;2024-01-25T12:48:18;14.25;;;2.50;;
25437;SDS011;13364;49.084;9.978;2024-01-25T12:50:45;13.07;;;2.70;;
25437;SDS011;13364;49.084;9.978;2024-01-25T12:53:12;10.27;;;2.95;;
25437;SDS011;13364;49.084;9.978;2024-01-25T12:55:40;9.48;;;2.83;;
25437;SDS011;13364;49.084;9.978;2024-01-25T12:58:09;12.80;;;2.17;;
25437;SDS011;13364;49.084;9.978;2024-01-25T13:00:36;15.38;;;3.00;;
25437;SDS011;13364;49.084;9.978;2024-01-25T13:03:03;10.38;;;2.22;;
25437;SDS011;13364;49.084;9.978;2024-01-25T13:05:30;12.75;;;2.50;;
25437;SDS011;13364;49.084;9.978;2024-01-25T13:08:01;10.52;;;2.30;;
25437;SDS011;13364;49.084;9.978;2024-01-25T13:10:31;9.73;;;2.45;;
25437;SDS011;13364;49.084;9.978;2024-01-25T13:12:58;15.73;;;2.90;;
25437;SDS011;13364;49.084;9.978;2024-01-25T13:15:25;9.27;;;2.42;;
25437;SDS011;13364;49.084;9.978;2024-01-25T13:17:53;9.90;;;2.55;;
25437;SDS011;13364;49.084;9.978;2024-01-25T13:20:20;10.90;;;2.70;;
25437;SDS011;13364;49.084;9.978;2024-01-25T13:22:46;8.02;;;2.28;;
25437;SDS011;13364;49.084;9.978;2024-01-25T13:25:13;9.25;;;2.25;;
25437;SDS011;13364;49.084;9.978;2024-01-25T13:27:41;12.50;;;2.25;;
25437;SDS011;13364;49.084;9.978;2024-01-25T13:30:08;8.77;;;2.00;;
25437;SDS011;13364;49.084;9.978;2024-01-25T13:35:05;5.50;;;1.83;;
25437;SDS011;13364;49.084;9.978;2024-01-25T13:37:32;9.30;;;2.83;;
25437;SDS011;13364;49.084;9.978;2024-01-25T13:39:59;11.80;;;2.67;;
25437;SDS011;13364;49.084;9.978;2024-01-25T13:42:26;12.05;;;2.92;;
25437;SDS011;13364;49.084;9.978;2024-01-25T13:44:53;11.93;;;2.60;;
25437;SDS011;13364;49.084;9.978;2024-01-25T13:47:20;8.43;;;2.25;;
25437;SDS011;13364;49.084;9.978;2024-01-25T13:49:46;7.25;;;2.13;;
25437;SDS011;13364;49.084;9.978;2024-01-25T13:52:17;11.63;;;2.63;;
25437;SDS011;13364;49.084;9.978;2024-01-25T13:54:46;12.50;;;2.30;;
25437;SDS011;13364;49.084;9.978;2024-01-25T13:57:16;9.02;;;2.28;;
25437;SDS011;13364;49.084;9.978;2024-01-25T13:59:43;9.75;;;2.10;;
25437;SDS011;13364;49.084;9.978;2024-01-25T14:02:10;9.52;;;2.28;;
25437;SDS011;13364;49.084;9.978;2024-01-25T14:04:37;10.07;;;2.35;;
25437;SDS011;13364;49.084;9.978;2024-01-25T14:07:05;11.65;;;2.80;;
25437;SDS011;13364;49.084;9.978;2024-01-25T14:09:32;8.73;;;2.63;;
25437;SDS011;13364;49.084;9.978;2024-01-25T14:11:59;12.00;;;2.20;;
25437;SDS011;13364;49.084;9.978;2024-01-25T14:14:27;15.55;;;2.13;;
25437;SDS011;13364;49.084;9.978;2024-01-25T14:16:54;8.27;;;2.25;;
25437;SDS011;13364;49.084;9.978;2024-01-25T14:19:20;10.10;;;2.72;;
25437;SDS011;13364;49.084;9.978;2024-01-25T14:21:48;13.27;;;2.60;;
25437;SDS011;13364;49.084;9.978;2024-01-25T14:24:36;7.30;;;1.65;;
25437;SDS011;13364;49.084;9.978;2024-01-25T14:27:04;8.70;;;2.30;;
25437;SDS011;13364;49.084;9.978;2024-01-25T14:29:33;11.73;;;2.50;;
25437;SDS011;13364;49.084;9.978;2024-01-25T14:32:01;10.73;;;2.45;;
25437;SDS011;13364;49.084;9.978;2024-01-25T14:34:29;10.18;;;2.40;;
25437;SDS011;13364;49.084;9.978;2024-01-25T14:36:56;9.40;;;2.40;;
25437;SDS011;13364;49.084;9.978;2024-01-25T14:39:22;7.95;;;1.75;;
25437;SDS011;13364;49.084;9.978;2024-01-25T14:41:49;10.35;;;1.75;;
25437;SDS011;13364;49.084;9.978;2024-01-25T14:44:16;11.82;;;1.65;;
25437;SDS011;13364;49.084;9.978;2024-01-25T14:46:43;7.68;;;1.83;;
25437;SDS011;13364;49.084;9.978;2024-01-25T14:49:10;6.95;;;1.98;;
25437;SDS011;13364;49.084;9.978;2024-01-25T14:51:37;9.50;;;2.08;;
25437;SDS011;13364;49.084;9.978;2024-01-25T14:54:04;17.63;;;2.35;;
25437;SDS011;13364;49.084;9.978;2024-01-25T14:59:03;11.00;;;1.80;;
25437;SDS011;13364;49.084;9.978;2024-01-25T15:01:29;7.63;;;1.92;;
25437;SDS011;13364;49.084;9.978;2024-01-25T15:03:57;7.22;;;1.80;;
25437;SDS011;13364;49.084;9.978;2024-01-25T15:06:24;14.27;;;2.40;;
25437;SDS011;13364;49.084;9.978;2024-01-25T15:08:52;12.98;;;2.38;;
25437;SDS011;13364;49.084;9.978;2024-01-25T15:11:19;7.82;;;2.08;;
25437;SDS011;13364;49.084;9.978;2024-01-25T15:13:46;9.02;;;1.85;;
25437;SDS011;13364;49.084;9.978;2024-01-25T15:16:14;9.20;;;2.10;;
25437;SDS011;13364;49.084;9.978;2024-01-25T15:18:46;6.82;;;1.65;;
25437;SDS011;13364;49.084;9.978;2024-01-25T15:21:13;10.32;;;2.00;;
25437;SDS011;13364;49.084;9.978;2024-01-25T15:23:40;7.28;;;1.98;;
25437;SDS011;13364;49.084;9.978;2024-01-25T15:26:07;8.85;;;2.20;;
25437;SDS011;13364;49.084;9.978;2024-01-25T15:28:34;7.57;;;1.73;;
25437;SDS011;13364;49.084;9.978;2024-01-25T15:31:01;6.25;;;1.90;;
25437;SDS011;13364;49.084;9.978;2024-01-25T15:33:28;8.40;;;2.05;;
25437;SDS011;13364;49.084;9.978;2024-01-25T15:35:55;7.53;;;1.80;;
25437;SDS011;13364;49.084;9.978;2024-01-25T15:38:22;6.32;;;2.20;;
25437;SDS011;13364;49.084;9.978;2024-01-25T15:40:49;8.82;;;1.92;;
25437;SDS011;13364;49.084;9.978;2024-01-25T15:43:27;8.70;;;1.85;;
25437;SDS011;13364;49.084;9.978;2024-01-25T15:45:54;5.55;;;1.77;;
25437;SDS011;13364;49.084;9.978;2024-01-25T15:48:21;6.88;;;1.95;;
25437;SDS011;13364;49.084;9.978;2024-01-25T15:50:49;14.88;;;2.83;;
25437;SDS011;13364;49.084;9.978;2024-01-25T15:53:16;8.48;;;1.73;;
25437;SDS011;13364;49.084;9.978;2024-01-25T15:55:43;5.72;;;1.90;;
25437;SDS011;13364;49.084;9.978;2024-01-25T15:58:10;9.23;;;2.25;;
25437;SDS011;13364;49.084;9.978;2024-01-25T16:00:36;5.78;;;1.55;;
25437;SDS011;13364;49.084;9.978;2024-01-25T16:03:03;9.88;;;2.40;;
25437;SDS011;13364;49.084;9.978;2024-01-25T16:05:30;3.67;;;1.25;;
25437;SDS011;13364;49.084;9.978;2024-01-25T16:07:57;6.15;;;1.55;;
25437;SDS011;13364;49.084;9.978;2024-01-25T16:10:24;8.65;;;1.80;;
25437;SDS011;13364;49.084;9.978;2024-01-25T16:12:51;10.60;;;1.80;;
25437;SDS011;13364;49.084;9.978;2024-01-25T16:15:18;5.63;;;1.60;;
25437;SDS011;13364;49.084;9.978;2024-01-25T16:17:45;5.90;;;1.52;;
25437;SDS011;13364;49.084;9.978;2024-01-25T16:20:12;10.30;;;1.88;;
25437;SDS011;13364;49.084;9.978;2024-01-25T16:22:41;5.65;;;1.52;;
25437;SDS011;13364;49.084;9.978;2024-01-25T16:25:08;10.48;;;2.20;;
25437;SDS011;13364;49.084;9.978;2024-01-25T16:27:35;6.85;;;1.80;;
25437;SDS011;13364;49.084;9.978;2024-01-25T16:30:02;9.70;;;1.80;;
25437;SDS011;13364;49.084;9.978;2024-01-25T16:32:29;6.93;;;1.75;;
25437;SDS011;13364;49.084;9.978;2024-01-25T16:34:56;6.88;;;1.95;;
25437;SDS011;13364;49.084;9.978;2024-01-25T16:37:23;9.52;;;2.15;;
25437;SDS011;13364;49.084;9.978;2024-01-25T16:39:50;6.20;;;1.70;;
25437;SDS011;13364;49.084;9.978;2024-01-25T16:42:16;4.30;;;1.70;;
25437;SDS011;13364;49.084;9.978;2024-01-25T16:44:43;9.50;;;2.13;;
25437;SDS011;13364;49.084;9.978;2024-01-25T16:47:10;4.30;;;1.50;;
25437;SDS011;13364;49.084;9.978;2024-01-25T16:49:37;7.80;;;1.77;;
25437;SDS011;13364;49.084;9.978;2024-01-25T16:52:04;9.20;;;2.45;;
25437;SDS011;13364;49.084;9.978;2024-01-25T16:54:31;8.95;;;2.55;;
25437;SDS011;13364;49.084;9.978;2024-01-25T16:56:58;9.00;;;1.70;;
25437;SDS011;13364;49.084;9.978;2024-01-25T16:59:25;10.32;;;2.20;;
25437;SDS011;13364;49.084;9.978;2024-01-25T17:01:52;5.10;;;2.17;;
25437;SDS011;13364;49.084;9.978;2024-01-25T17:04:19;6.57;;;1.77;;
25437;SDS011;13364;49.084;9.978;2024-01-25T17:06:46;10.90;;;2.30;;
25437;SDS011;13364;49.084;9.978;2024-01-25T17:09:13;12.65;;;1.85;;
25437;SDS011;13364;49.084;9.978;2024-01-25T17:11:40;6.97;;;1.90;;
25437;SDS011;13364;49.084;9.978;2024-01-25T17:14:06;3.38;;;2.10;;
25437;SDS011;13364;49.084;9.978;2024-01-25T17:16:33;7.93;;;2.35;;
25437;SDS011;13364;49.084;9.978;2024-01-25T17:19:00;7.25;;;1.85;;
25437;SDS011;13364;49.084;9.978;2024-01-25T17:21:28;5.78;;;1.77;;
25437;SDS011;13364;49.084;9.978;2024-01-25T17:23:55;9.57;;;2.30;;
25437;SDS011;13364;49.084;9.978;2024-01-25T17:26:24;7.57;;;1.80;;
25437;SDS011;13364;49.084;9.978;2024-01-25T17:28:51;11.15;;;2.15;;
25437;SDS011;13364;49.084;9.978;2024-01-25T17:31:18;10.07;;;2.40;;
25437;SDS011;13364;49.084;9.978;2024-01-25T17:33:45;7.53;;;1.98;;
25437;SDS011;13364;49.084;9.978;2024-01-25T17:36:13;6.15;;;2.15;;
25437;SDS011;13364;49.084;9.978;2024-01-25T17:38:40;9.93;;;2.03;;
25437;SDS011;13364;49.084;9.978;2024-01-25T17:41:09;10.18;;;1.90;;
25437;SDS011;13364;49.084;9.978;2024-01-25T17:43:36;8.23;;;1.77;;
25437;SDS011;13364;49.084;9.978;2024-01-25T17:46:03;9.45;;;2.05;;
25437;SDS011;13364;49.084;9.978;2024-01-25T17:48:31;13.20;;;2.28;;
25437;SDS011;13364;49.084;9.978;2024-01-25T17:50:59;6.03;;;1.83;;
25437;SDS011;13364;49.084;9.978;2024-01-25T17:53:26;7.57;;;2.05;;
25437;SDS011;13364;49.084;9.978;2024-01-25T17:55:53;6.35;;;2.42;;
25437;SDS011;13364;49.084;9.978;2024-01-25T17:58:20;8.63;;;3.20;;
25437;SDS011;13364;49.084;9.978;2024-01-25T18:00:47;16.58;;;5.88;;
25437;SDS011;13364;49.084;9.978;2024-01-25T18:03:14;15.15;;;5.22;;
25437;SDS011;13364;49.084;9.978;2024-01-25T18:05:41;13.73;;;4.47;;
25437;SDS011;13364;49.084;9.978;2024-01-25T18:08:08;9.85;;;4.75;;
25437;SDS011;13364;49.084;9.978;2024-01-25T18:10:35;11.05;;;3.83;;
25437;SDS011;13364;49.084;9.978;2024-01-25T18:13:02;9.05;;;4.13;;
25437;SDS011;13364;49.084;9.978;2024-01-25T18:15:29;12.18;;;5.80;;
25437;SDS011;13364;49.084;9.978;2024-01-25T18:17:55;19.05;;;8.15;;
25437;SDS011;13364;49.084;9.978;2024-01-25T18:20:22;16.00;;;7.35;;
25437;SDS011;13364;49.084;9.978;2024-01-25T18:22:49;13.65;;;7.15;;
25437;SDS011;13364;49.084;9.978;2024-01-25T18:25:17;16.35;;;6.68;;
25437;SDS011;13364;49.084;9.978;2024-01-25T18:27:43;15.43;;;6.07;;
25437;SDS011;13364;49.084;9.978;2024-01-25T18:30:10;13.45;;;5.82;;
25437;SDS011;13364;49.084;9.978;2024-01-25T18:32:38;16.58;;;6.30;;
25437;SDS011;13364;49.084;9.978;2024-01-25T18:35:05;13.38;;;6.05;;
25437;SDS011;13364;49.084;9.978;2024-01-25T18:37:32;11.13;;;6.72;;
25437;SDS011;13364;49.084;9.978;2024-01-25T18:39:59;16.15;;;5.97;;
25437;SDS011;13364;49.084;9.978;2024-01-25T18:42:29;17.88;;;5.90;;
25437;SDS011;13364;49.084;9.978;2024-01-25T18:44:55;16.75;;;5.93;;
25437;SDS011;13364;49.084;9.978;2024-01-25T18:47:22;21.20;;;7.35;;
25437;SDS011;13364;49.084;9.978;2024-01-25T18:49:50;35.85;;;11.13;;
25437;SDS011;13364;49.084;9.978;2024-01-25T18:52:17;28.00;;;11.68;;
25437;SDS011;13364;49.084;9.978;2024-01-25T18:54:44;25.42;;;10.18;;
25437;SDS011;13364;49.084;9.978;2024-01-25T18:57:12;21.08;;;9.02;;
25437;SDS011;13364;49.084;9.978;2024-01-25T18:59:39;18.95;;;7.63;;
25437;SDS011;13364;49.084;9.978;2024-01-25T19:02:06;14.50;;;5.35;;
25437;SDS011;13364;49.084;9.978;2024-01-25T19:04:33;7.30;;;3.20;;
25437;SDS011;13364;49.084;9.978;2024-01-25T19:07:01;13.20;;;3.28;;
25437;SDS011;13364;49.084;9.978;2024-01-25T19:09:28;8.35;;;2.53;;
25437;SDS011;13364;49.084;9.978;2024-01-25T19:11:55;4.15;;;2.42;;
25437;SDS011;13364;49.084;9.978;2024-01-25T19:14:22;11.60;;;2.80;;
25437;SDS011;13364;49.084;9.978;2024-01-25T19:16:49;12.02;;;2.88;;
25437;SDS011;13364;49.084;9.978;2024-01-25T19:19:17;9.38;;;2.53;;
25437;SDS011;13364;49.084;9.978;2024-01-25T19:21:44;7.50;;;2.95;;
25437;SDS011;13364;49.084;9.978;2024-01-25T19:24:11;10.70;;;3.00;;
25437;SDS011;13364;49.084;9.978;2024-01-25T19:26:42;7.15;;;2.65;;
25437;SDS011;13364;49.084;9.978;2024-01-25T19:29:12;10.73;;;2.50;;
25437;SDS011;13364;49.084;9.978;2024-01-25T19:31:39;6.85;;;1.92;;
25437;SDS011;13364;49.084;9.978;2024-01-25T19:34:06;5.35;;;1.80;;
25437;SDS011;13364;49.084;9.978;2024-01-25T19:36:34;6.28;;;2.05;;
25437;SDS011;13364;49.084;9.978;2024-01-25T19:39:01;10.75;;;2.85;;
25437;SDS011;13364;49.084;9.978;2024-01-25T19:41:28;8.75;;;2.47;;
25437;SDS011;13364;49.084;9.978;2024-01-25T19:43:55;9.90;;;2.75;;
25437;SDS011;13364;49.084;9.978;2024-01-25T19:46:22;4.55;;;1.92;;
25437;SDS011;13364;49.084;9.978;2024-01-25T19:48:49;5.47;;;2.25;;
25437;SDS011;13364;49.084;9.978;2024-01-25T19:51:16;6.78;;;3.08;;
25437;SDS011;13364;49.084;9.978;2024-01-25T19:53:43;6.85;;;2.95;;